No particular awareness of the weather is required.    There are no Weather-warnings


Meteo18 Weather Cam more information Meteo18 Weather Cam


Thunder radar more information blitzortung!


Rain radar more information rain snow radar


Visit our other weather sites:

Template documentation
and downloads

And another site



Weather Underground History page Text

Daily Summary for February 21, 2018 Units:  Both    English   Metric
« Previous Day
Next Day »
Daily Weekly Monthly Yearly Custom
  High: Low: Average:
Temperature: TemperatureC °F /  -17.8 °C -0.6 °F /  -18.1 °C 1.7 °F /  -16.8 °C
Dew Point: DewpointC °F /  -17.8 °C -3.2 °F /  -19.6 °C -1.5 °F /  -18.6 °C
Humidity: Humidity % 62 % 79 %
Wind Speed: WindSpeedKMH mph /  0 km/h - 10.7 mph /  17.2 km/h
Wind Gust: WindSpeedGustKMH mph /  0 km/h - -
Wind:- - ESE
Pressure: PressurehPa in /  0 hPa 1016.8 in /  34428.8 hPa -
Precipitation: 0.0 in /  0 mm    
Historical Graphs
 
 
Tabular Data for February 21, 2018
Time Temperature Dew Point Pressure Wind Wind Speed Wind Gust Humidity Rainfall Rate (Hourly)
TemperatureC °F /  -17.8 °C DewpointC °F /  -17.8 °C PressurehPa in /  0 hPa Calm     Humidity % HourlyPrecipMM in /  0 mm
00:02 2.3 °F /  -16.5 °C -0.1 °F /  -17.8 °C 1017.5 in /  34452.6 hPa NE 13.0 mph /  20.9 km/h 17.7 mph /  28.5 km/h 84 % 0.0 in /  0 mm
00:08 2.3 °F /  -16.5 °C -0.1 °F /  -17.8 °C 1017.5 in /  34452.6 hPa NNE 14.3 mph /  23 km/h 14.5 mph /  23.3 km/h 84 % 0.0 in /  0 mm
00:14 2.2 °F /  -16.6 °C -0.2 °F /  -17.9 °C 1017.8 in /  34462.7 hPa NE 6.4 mph /  10.3 km/h 12.9 mph /  20.8 km/h 84 % 0.0 in /  0 mm
00:20 2.2 °F /  -16.6 °C -0.1 °F /  -17.8 °C 1017.8 in /  34462.7 hPa NNW 1.4 mph /  2.3 km/h 12.9 mph /  20.8 km/h 85 % 0.0 in /  0 mm
00:26 2.1 °F /  -16.6 °C -0.2 °F /  -17.9 °C 1017.8 in /  34462.7 hPa NE 4.7 mph /  7.6 km/h 9.7 mph /  15.6 km/h 85 % 0.0 in /  0 mm
00:32 2.1 °F /  -16.6 °C -0.2 °F /  -17.9 °C 1017.8 in /  34462.7 hPa NNW 6.4 mph /  10.3 km/h 20.9 mph /  33.6 km/h 85 % 0.0 in /  0 mm
00:38 1.9 °F /  -16.7 °C -0.4 °F /  -18 °C 1018.2 in /  34476.3 hPa North 3.2 mph /  5.1 km/h 16.1 mph /  25.9 km/h 85 % 0.0 in /  0 mm
00:44 1.8 °F /  -16.8 °C -0.5 °F /  -18.1 °C 1018.2 in /  34476.3 hPa NNW 7.9 mph /  12.7 km/h 11.3 mph /  18.2 km/h 85 % 0.0 in /  0 mm
00:50 1.8 °F /  -16.8 °C -0.5 °F /  -18.1 °C 1018.2 in /  34476.3 hPa NNE 3.2 mph /  5.1 km/h 17.7 mph /  28.5 km/h 85 % 0.0 in /  0 mm
00:56 1.8 °F /  -16.8 °C -0.5 °F /  -18.1 °C 1018.2 in /  34476.3 hPa North 9.7 mph /  15.6 km/h 11.3 mph /  18.2 km/h 85 % 0.0 in /  0 mm
01:02 1.8 °F /  -16.8 °C -0.5 °F /  -18.1 °C 1018.2 in /  34476.3 hPa NE 6.4 mph /  10.3 km/h 11.3 mph /  18.2 km/h 85 % 0.0 in /  0 mm
01:08 1.7 °F /  -16.8 °C -0.6 °F /  -18.1 °C 1018.2 in /  34476.3 hPa NNE 4.7 mph /  7.6 km/h 12.9 mph /  20.8 km/h 85 % 0.0 in /  0 mm
01:14 1.7 °F /  -16.8 °C -0.4 °F /  -18 °C 1018.2 in /  34476.3 hPa NNW 6.4 mph /  10.3 km/h 11.3 mph /  18.2 km/h 86 % 0.0 in /  0 mm
01:20 1.7 °F /  -16.8 °C -0.4 °F /  -18 °C 1018.5 in /  34486.4 hPa ENE 1.4 mph /  2.3 km/h 12.9 mph /  20.8 km/h 86 % 0.0 in /  0 mm
01:26 1.6 °F /  -16.9 °C -0.5 °F /  -18.1 °C 1018.5 in /  34486.4 hPa NNW 9.7 mph /  15.6 km/h 14.5 mph /  23.3 km/h 86 % 0.0 in /  0 mm
01:32 1.6 °F /  -16.9 °C -0.5 °F /  -18.1 °C 1018.5 in /  34486.4 hPa NNW 3.2 mph /  5.1 km/h 9.7 mph /  15.6 km/h 86 % 0.0 in /  0 mm
01:38 1.6 °F /  -16.9 °C -0.3 °F /  -17.9 °C 1018.8 in /  34496.6 hPa NNE 6.4 mph /  10.3 km/h 8.0 mph /  12.9 km/h 87 % 0.0 in /  0 mm
01:44 1.6 °F /  -16.9 °C -0.5 °F /  -18.1 °C 1018.8 in /  34496.6 hPa North 6.4 mph /  10.3 km/h 12.9 mph /  20.8 km/h 86 % 0.0 in /  0 mm
01:50 1.6 °F /  -16.9 °C -0.5 °F /  -18.1 °C 1018.8 in /  34496.6 hPa NNE 7.9 mph /  12.7 km/h 9.7 mph /  15.6 km/h 86 % 0.0 in /  0 mm
01:56 1.6 °F /  -16.9 °C -0.5 °F /  -18.1 °C 1018.8 in /  34496.6 hPa NE 9.7 mph /  15.6 km/h 16.1 mph /  25.9 km/h 86 % 0.0 in /  0 mm
02:02 1.6 °F /  -16.9 °C -0.5 °F /  -18.1 °C 1018.5 in /  34486.4 hPa NNW 6.4 mph /  10.3 km/h 16.1 mph /  25.9 km/h 86 % 0.0 in /  0 mm
02:08 1.6 °F /  -16.9 °C -0.5 °F /  -18.1 °C 1018.5 in /  34486.4 hPa North 4.7 mph /  7.6 km/h 12.9 mph /  20.8 km/h 86 % 0.0 in /  0 mm
02:14 1.6 °F /  -16.9 °C -0.6 °F /  -18.1 °C 1018.5 in /  34486.4 hPa North 9.7 mph /  15.6 km/h 14.5 mph /  23.3 km/h 85 % 0.0 in /  0 mm
02:20 1.6 °F /  -16.9 °C -0.5 °F /  -18.1 °C 1018.5 in /  34486.4 hPa ENE 1.4 mph /  2.3 km/h 9.7 mph /  15.6 km/h 86 % 0.0 in /  0 mm
02:26 1.5 °F /  -16.9 °C -0.7 °F /  -18.2 °C 1018.5 in /  34486.4 hPa NE 9.7 mph /  15.6 km/h 16.1 mph /  25.9 km/h 85 % 0.0 in /  0 mm
02:32 1.4 °F /  -17 °C -0.8 °F /  -18.2 °C 1018.5 in /  34486.4 hPa NE 9.7 mph /  15.6 km/h 11.3 mph /  18.2 km/h 85 % 0.0 in /  0 mm
02:38 1.3 °F /  -17.1 °C -0.8 °F /  -18.2 °C 1018.5 in /  34486.4 hPa NNE 3.2 mph /  5.1 km/h 8.0 mph /  12.9 km/h 86 % 0.0 in /  0 mm
02:44 1.2 °F /  -17.1 °C -0.9 °F /  -18.3 °C 1018.5 in /  34486.4 hPa North 1.4 mph /  2.3 km/h 9.7 mph /  15.6 km/h 86 % 0.0 in /  0 mm
02:50 1.2 °F /  -17.1 °C -0.9 °F /  -18.3 °C 1018.5 in /  34486.4 hPa North 3.2 mph /  5.1 km/h 6.4 mph /  10.3 km/h 86 % 0.0 in /  0 mm
02:56 1.1 °F /  -17.2 °C -1.0 °F /  -18.3 °C 1018.5 in /  34486.4 hPa NE 6.4 mph /  10.3 km/h 9.7 mph /  15.6 km/h 86 % 0.0 in /  0 mm
03:02 1.0 °F /  -17.2 °C -1.1 °F /  -18.4 °C 1018.5 in /  34486.4 hPa Calm   6.4 mph /  10.3 km/h 86 % 0.0 in /  0 mm
03:08 0.9 °F /  -17.3 °C -1.2 °F /  -18.4 °C 1018.5 in /  34486.4 hPa NNE 3.2 mph /  5.1 km/h 8.0 mph /  12.9 km/h 86 % 0.0 in /  0 mm
03:14 0.8 °F /  -17.3 °C -1.3 °F /  -18.5 °C 1018.5 in /  34486.4 hPa Calm   4.8 mph /  7.7 km/h 86 % 0.0 in /  0 mm
03:20 0.7 °F /  -17.4 °C -1.4 °F /  -18.6 °C 1018.2 in /  34476.3 hPa Calm   3.2 mph /  5.1 km/h 86 % 0.0 in /  0 mm
03:26 0.5 °F /  -17.5 °C -1.6 °F /  -18.7 °C 1018.2 in /  34476.3 hPa Calm   4.8 mph /  7.7 km/h 86 % 0.0 in /  0 mm
03:32 0.4 °F /  -17.6 °C -1.7 °F /  -18.7 °C 1018.2 in /  34476.3 hPa Calm   4.8 mph /  7.7 km/h 86 % 0.0 in /  0 mm
03:38 0.3 °F /  -17.6 °C -1.8 °F /  -18.8 °C 1018.2 in /  34476.3 hPa Calm   1.6 mph /  2.6 km/h 86 % 0.0 in /  0 mm
03:44 0.3 °F /  -17.6 °C -1.8 °F /  -18.8 °C 1018.2 in /  34476.3 hPa Calm   6.4 mph /  10.3 km/h 86 % 0.0 in /  0 mm
03:50 0.4 °F /  -17.6 °C -1.7 °F /  -18.7 °C 1017.8 in /  34462.7 hPa Calm   9.7 mph /  15.6 km/h 86 % 0.0 in /  0 mm
03:56 0.5 °F /  -17.5 °C -1.7 °F /  -18.7 °C 1017.8 in /  34462.7 hPa NNE 6.4 mph /  10.3 km/h 6.4 mph /  10.3 km/h 85 % 0.0 in /  0 mm
04:02 0.6 °F /  -17.4 °C -1.6 °F /  -18.7 °C 1017.8 in /  34462.7 hPa NE 1.4 mph /  2.3 km/h 11.3 mph /  18.2 km/h 85 % 0.0 in /  0 mm
04:08 0.7 °F /  -17.4 °C -1.7 °F /  -18.7 °C 1017.8 in /  34462.7 hPa NE 9.7 mph /  15.6 km/h 9.7 mph /  15.6 km/h 84 % 0.0 in /  0 mm
04:14 0.7 °F /  -17.4 °C -1.7 °F /  -18.7 °C 1017.8 in /  34462.7 hPa North 4.7 mph /  7.6 km/h 11.3 mph /  18.2 km/h 84 % 0.0 in /  0 mm
04:20 0.6 °F /  -17.4 °C -1.8 °F /  -18.8 °C 1017.8 in /  34462.7 hPa Calm   4.8 mph /  7.7 km/h 84 % 0.0 in /  0 mm
04:26 0.5 °F /  -17.5 °C -1.9 °F /  -18.8 °C 1017.8 in /  34462.7 hPa Calm   8.0 mph /  12.9 km/h 84 % 0.0 in /  0 mm
04:32 0.4 °F /  -17.6 °C -1.8 °F /  -18.8 °C 1017.8 in /  34462.7 hPa North 6.4 mph /  10.3 km/h 16.1 mph /  25.9 km/h 85 % 0.0 in /  0 mm
04:38 0.3 °F /  -17.6 °C -1.8 °F /  -18.8 °C 1017.8 in /  34462.7 hPa NNE 16.3 mph /  26.2 km/h 16.3 mph /  26.2 km/h 86 % 0.0 in /  0 mm
04:45 0.3 °F /  -17.6 °C -1.8 °F /  -18.8 °C 1017.8 in /  34462.7 hPa Calm   12.9 mph /  20.8 km/h 86 % 0.0 in /  0 mm
04:51 0.4 °F /  -17.6 °C -1.7 °F /  -18.7 °C 1017.8 in /  34462.7 hPa ENE 1.4 mph /  2.3 km/h 14.5 mph /  23.3 km/h 86 % 0.0 in /  0 mm
04:57 0.3 °F /  -17.6 °C -1.8 °F /  -18.8 °C 1017.8 in /  34462.7 hPa North 3.2 mph /  5.1 km/h 9.7 mph /  15.6 km/h 86 % 0.0 in /  0 mm
05:03 0.4 °F /  -17.6 °C -1.8 °F /  -18.8 °C 1017.8 in /  34462.7 hPa North 1.4 mph /  2.3 km/h 12.9 mph /  20.8 km/h 85 % 0.0 in /  0 mm
05:09 0.3 °F /  -17.6 °C -1.9 °F /  -18.8 °C 1017.8 in /  34462.7 hPa Calm   9.7 mph /  15.6 km/h 85 % 0.0 in /  0 mm
05:15 0.3 °F /  -17.6 °C -1.9 °F /  -18.8 °C 1017.8 in /  34462.7 hPa NNE 6.4 mph /  10.3 km/h 12.9 mph /  20.8 km/h 85 % 0.0 in /  0 mm
05:21 0.3 °F /  -17.6 °C -1.8 °F /  -18.8 °C 1017.8 in /  34462.7 hPa NNE 4.7 mph /  7.6 km/h 12.9 mph /  20.8 km/h 86 % 0.0 in /  0 mm
05:27 0.2 °F /  -17.7 °C -1.9 °F /  -18.8 °C 1017.8 in /  34462.7 hPa NNW 6.4 mph /  10.3 km/h 17.7 mph /  28.5 km/h 86 % 0.0 in /  0 mm
05:33 0.2 °F /  -17.7 °C -1.7 °F /  -18.7 °C 1017.8 in /  34462.7 hPa NNE 4.7 mph /  7.6 km/h 14.5 mph /  23.3 km/h 87 % 0.0 in /  0 mm
05:39 0.2 °F /  -17.7 °C -1.7 °F /  -18.7 °C 1018.2 in /  34476.3 hPa NNW 6.4 mph /  10.3 km/h 14.5 mph /  23.3 km/h 87 % 0.0 in /  0 mm
05:45 0.2 °F /  -17.7 °C -1.7 °F /  -18.7 °C 1018.2 in /  34476.3 hPa North 16.3 mph /  26.2 km/h 17.7 mph /  28.5 km/h 87 % 0.0 in /  0 mm
05:51 0.2 °F /  -17.7 °C -1.7 °F /  -18.7 °C 1018.2 in /  34476.3 hPa NNE 6.4 mph /  10.3 km/h 16.1 mph /  25.9 km/h 87 % 0.0 in /  0 mm
05:57 0.2 °F /  -17.7 °C -1.7 °F /  -18.7 °C 1017.8 in /  34462.7 hPa NNE 7.9 mph /  12.7 km/h 14.5 mph /  23.3 km/h 87 % 0.0 in /  0 mm
06:03 0.2 °F /  -17.7 °C -1.7 °F /  -18.7 °C 1018.2 in /  34476.3 hPa NNE 9.7 mph /  15.6 km/h 11.3 mph /  18.2 km/h 87 % 0.0 in /  0 mm
06:09 0.1 °F /  -17.7 °C -1.7 °F /  -18.7 °C 1018.2 in /  34476.3 hPa NE 7.9 mph /  12.7 km/h 16.1 mph /  25.9 km/h 88 % 0.0 in /  0 mm
06:15 0.1 °F /  -17.7 °C -1.7 °F /  -18.7 °C 1018.2 in /  34476.3 hPa North 11.1 mph /  17.9 km/h 20.9 mph /  33.6 km/h 88 % 0.0 in /  0 mm
06:21 0.0 °F /  -17.8 °C -1.7 °F /  -18.7 °C 1018.2 in /  34476.3 hPa ENE 4.7 mph /  7.6 km/h 11.3 mph /  18.2 km/h 88 % 0.0 in /  0 mm
06:27 -0.1 °F /  -17.8 °C -1.7 °F /  -18.7 °C 1018.2 in /  34476.3 hPa NNE 3.2 mph /  5.1 km/h 17.7 mph /  28.5 km/h 89 % 0.0 in /  0 mm
06:33 -0.1 °F /  -17.8 °C -1.5 °F /  -18.6 °C 1018.2 in /  34476.3 hPa North 7.9 mph /  12.7 km/h 17.7 mph /  28.5 km/h 90 % 0.0 in /  0 mm
06:39 -0.2 °F /  -17.9 °C -1.6 °F /  -18.7 °C 1018.2 in /  34476.3 hPa North 11.1 mph /  17.9 km/h 19.3 mph /  31.1 km/h 90 % 0.0 in /  0 mm
06:45 -0.2 °F /  -17.9 °C -1.5 °F /  -18.6 °C 1018.2 in /  34476.3 hPa North 9.7 mph /  15.6 km/h 14.5 mph /  23.3 km/h 91 % 0.0 in /  0 mm
06:51 -0.3 °F /  -17.9 °C -1.6 °F /  -18.7 °C 1018.5 in /  34486.4 hPa NNW 13.0 mph /  20.9 km/h 27.4 mph /  44.1 km/h 91 % 0.0 in /  0 mm
06:57 -0.3 °F /  -17.9 °C -1.6 °F /  -18.7 °C 1018.2 in /  34476.3 hPa NNE 9.7 mph /  15.6 km/h 17.7 mph /  28.5 km/h 91 % 0.0 in /  0 mm
07:03 -0.3 °F /  -17.9 °C -1.6 °F /  -18.7 °C 1018.2 in /  34476.3 hPa North 7.9 mph /  12.7 km/h 17.7 mph /  28.5 km/h 91 % 0.0 in /  0 mm
07:09 -0.4 °F /  -18 °C -1.5 °F /  -18.6 °C 1018.2 in /  34476.3 hPa NE 11.1 mph /  17.9 km/h 11.3 mph /  18.2 km/h 92 % 0.0 in /  0 mm
07:15 -0.5 °F /  -18.1 °C -1.6 °F /  -18.7 °C 1018.2 in /  34476.3 hPa North 6.4 mph /  10.3 km/h 16.1 mph /  25.9 km/h 92 % 0.0 in /  0 mm
07:21 -0.4 °F /  -18 °C -1.7 °F /  -18.7 °C 1018.5 in /  34486.4 hPa NNE 6.4 mph /  10.3 km/h 14.5 mph /  23.3 km/h 91 % 0.0 in /  0 mm
07:27 -0.4 °F /  -18 °C -1.7 °F /  -18.7 °C 1018.5 in /  34486.4 hPa NNE 6.4 mph /  10.3 km/h 19.3 mph /  31.1 km/h 91 % 0.0 in /  0 mm
07:33 -0.3 °F /  -17.9 °C -1.7 °F /  -18.7 °C 1018.5 in /  34486.4 hPa NE 19.5 mph /  31.4 km/h 19.5 mph /  31.4 km/h 90 % 0.0 in /  0 mm
07:39 -0.3 °F /  -17.9 °C -1.7 °F /  -18.7 °C 1018.5 in /  34486.4 hPa NE 1.4 mph /  2.3 km/h 12.9 mph /  20.8 km/h 90 % 0.0 in /  0 mm
07:45 -0.4 °F /  -18 °C -1.8 °F /  -18.8 °C 1018.5 in /  34486.4 hPa NNW 3.2 mph /  5.1 km/h 19.3 mph /  31.1 km/h 90 % 0.0 in /  0 mm
07:51 -0.4 °F /  -18 °C -1.8 °F /  -18.8 °C 1018.5 in /  34486.4 hPa NNE 4.7 mph /  7.6 km/h 19.3 mph /  31.1 km/h 90 % 0.0 in /  0 mm
07:57 -0.6 °F /  -18.1 °C -2.0 °F /  -18.9 °C 1018.5 in /  34486.4 hPa NE 3.2 mph /  5.1 km/h 11.3 mph /  18.2 km/h 90 % 0.0 in /  0 mm
08:03 -0.6 °F /  -18.1 °C -1.9 °F /  -18.8 °C 1018.5 in /  34486.4 hPa NE 7.9 mph /  12.7 km/h 16.1 mph /  25.9 km/h 91 % 0.0 in /  0 mm
08:09 -0.6 °F /  -18.1 °C -2.0 °F /  -18.9 °C 1018.5 in /  34486.4 hPa NE 9.7 mph /  15.6 km/h 19.3 mph /  31.1 km/h 90 % 0.0 in /  0 mm
08:15 -0.4 °F /  -18 °C -1.8 °F /  -18.8 °C 1018.5 in /  34486.4 hPa NE 9.7 mph /  15.6 km/h 22.5 mph /  36.2 km/h 90 % 0.0 in /  0 mm
08:21 -0.4 °F /  -18 °C -2.0 °F /  -18.9 °C 1018.2 in /  34476.3 hPa NNW 4.7 mph /  7.6 km/h 27.4 mph /  44.1 km/h 89 % 0.0 in /  0 mm
08:27 -0.3 °F /  -17.9 °C -2.0 °F /  -18.9 °C 1018.5 in /  34486.4 hPa NE 16.3 mph /  26.2 km/h 27.4 mph /  44.1 km/h 88 % 0.0 in /  0 mm
08:33 -0.2 °F /  -17.9 °C -2.3 °F /  -19.1 °C 1018.5 in /  34486.4 hPa North 25.9 mph /  41.7 km/h 25.9 mph /  41.7 km/h 86 % 0.0 in /  0 mm
08:39 -0.1 °F /  -17.8 °C -2.3 °F /  -19.1 °C 1018.5 in /  34486.4 hPa NNE 13.0 mph /  20.9 km/h 27.4 mph /  44.1 km/h 85 % 0.0 in /  0 mm
08:45 0.0 °F /  -17.8 °C -2.4 °F /  -19.1 °C 1018.5 in /  34486.4 hPa NE 16.3 mph /  26.2 km/h 24.1 mph /  38.8 km/h 84 % 0.0 in /  0 mm
08:51 0.1 °F /  -17.7 °C -2.3 °F /  -19.1 °C 1018.5 in /  34486.4 hPa NE 14.3 mph /  23 km/h 22.5 mph /  36.2 km/h 84 % 0.0 in /  0 mm
08:57 0.1 °F /  -17.7 °C -2.4 °F /  -19.1 °C 1018.5 in /  34486.4 hPa NNE 24.1 mph /  38.8 km/h 29.0 mph /  46.7 km/h 83 % 0.0 in /  0 mm
09:03 0.2 °F /  -17.7 °C -2.3 °F /  -19.1 °C 1018.5 in /  34486.4 hPa ENE 19.5 mph /  31.4 km/h 32.2 mph /  51.8 km/h 83 % 0.0 in /  0 mm
09:09 0.2 °F /  -17.7 °C -2.3 °F /  -19.1 °C 1018.5 in /  34486.4 hPa NNE 13.0 mph /  20.9 km/h 22.5 mph /  36.2 km/h 83 % 0.0 in /  0 mm
09:15 0.2 °F /  -17.7 °C -2.3 °F /  -19.1 °C 1018.5 in /  34486.4 hPa NE 19.5 mph /  31.4 km/h 30.6 mph /  49.2 km/h 83 % 0.0 in /  0 mm
09:21 0.2 °F /  -17.7 °C -2.3 °F /  -19.1 °C 1018.8 in /  34496.6 hPa NNE 16.3 mph /  26.2 km/h 20.9 mph /  33.6 km/h 83 % 0.0 in /  0 mm
09:27 0.3 °F /  -17.6 °C -2.2 °F /  -19 °C 1018.8 in /  34496.6 hPa NNE 11.1 mph /  17.9 km/h 19.3 mph /  31.1 km/h 83 % 0.0 in /  0 mm
09:33 0.4 °F /  -17.6 °C -2.3 °F /  -19.1 °C 1018.8 in /  34496.6 hPa North 16.3 mph /  26.2 km/h 16.3 mph /  26.2 km/h 82 % 0.0 in /  0 mm
09:39 0.4 °F /  -17.6 °C -2.3 °F /  -19.1 °C 1018.8 in /  34496.6 hPa NE 11.1 mph /  17.9 km/h 16.1 mph /  25.9 km/h 82 % 0.0 in /  0 mm
09:45 0.6 °F /  -17.4 °C -2.3 °F /  -19.1 °C 1018.8 in /  34496.6 hPa NNE 7.9 mph /  12.7 km/h 19.3 mph /  31.1 km/h 81 % 0.0 in /  0 mm
09:51 0.6 °F /  -17.4 °C -2.5 °F /  -19.2 °C 1018.8 in /  34496.6 hPa North 14.3 mph /  23 km/h 24.1 mph /  38.8 km/h 80 % 0.0 in /  0 mm
09:57 0.7 °F /  -17.4 °C -2.4 °F /  -19.1 °C 1018.8 in /  34496.6 hPa NE 16.3 mph /  26.2 km/h 19.3 mph /  31.1 km/h 80 % 0.0 in /  0 mm
10:03 0.7 °F /  -17.4 °C -2.4 °F /  -19.1 °C 1019.2 in /  34510.1 hPa NNE 20.9 mph /  33.6 km/h 20.9 mph /  33.6 km/h 80 % 0.0 in /  0 mm
10:09 0.8 °F /  -17.3 °C -2.4 °F /  -19.1 °C 1019.2 in /  34510.1 hPa North 7.9 mph /  12.7 km/h 22.5 mph /  36.2 km/h 79 % 0.0 in /  0 mm
10:15 0.9 °F /  -17.3 °C -2.5 °F /  -19.2 °C 1019.2 in /  34510.1 hPa NNW 11.1 mph /  17.9 km/h 25.7 mph /  41.4 km/h 78 % 0.0 in /  0 mm
10:21 0.9 °F /  -17.3 °C -2.7 °F /  -19.3 °C 1019.2 in /  34510.1 hPa NNE 11.1 mph /  17.9 km/h 32.2 mph /  51.8 km/h 77 % 0.0 in /  0 mm
10:27 1.1 °F /  -17.2 °C -2.7 °F /  -19.3 °C 1019.2 in /  34510.1 hPa NNE 25.9 mph /  41.7 km/h 29.0 mph /  46.7 km/h 76 % 0.0 in /  0 mm
10:33 1.2 °F /  -17.1 °C -2.6 °F /  -19.2 °C 1019.2 in /  34510.1 hPa NNE 19.5 mph /  31.4 km/h 27.4 mph /  44.1 km/h 76 % 0.0 in /  0 mm
10:39 1.3 °F /  -17.1 °C -2.3 °F /  -19.1 °C 1019.2 in /  34510.1 hPa NE 19.5 mph /  31.4 km/h 20.9 mph /  33.6 km/h 77 % 0.0 in /  0 mm
10:49 1.5 °F /  -16.9 °C -2.6 °F /  -19.2 °C 1019.2 in /  34510.1 hPa NE 16.3 mph /  26.2 km/h 25.7 mph /  41.4 km/h 74 % 0.0 in /  0 mm
10:55 1.6 °F /  -16.9 °C -2.5 °F /  -19.2 °C 1019.2 in /  34510.1 hPa NNE 13.0 mph /  20.9 km/h 29.0 mph /  46.7 km/h 74 % 0.0 in /  0 mm
11:01 1.6 °F /  -16.9 °C -2.7 °F /  -19.3 °C 1019.2 in /  34510.1 hPa NNE 19.5 mph /  31.4 km/h 35.4 mph /  57 km/h 73 % 0.0 in /  0 mm
11:07 1.7 °F /  -16.8 °C -3.0 °F /  -19.4 °C 1019.2 in /  34510.1 hPa NE 22.7 mph /  36.5 km/h 33.8 mph /  54.4 km/h 71 % 0.0 in /  0 mm
11:13 1.7 °F /  -16.8 °C -3.2 °F /  -19.6 °C 1019.2 in /  34510.1 hPa North 14.3 mph /  23 km/h 35.4 mph /  57 km/h 70 % 0.0 in /  0 mm
11:19 1.8 °F /  -16.8 °C -2.9 °F /  -19.4 °C 1019.2 in /  34510.1 hPa NE 17.7 mph /  28.5 km/h 33.8 mph /  54.4 km/h 71 % 0.0 in /  0 mm
11:25 1.8 °F /  -16.8 °C -3.1 °F /  -19.5 °C 1019.2 in /  34510.1 hPa NE 25.9 mph /  41.7 km/h 38.6 mph /  62.1 km/h 70 % 0.0 in /  0 mm
11:31 1.9 °F /  -16.7 °C -2.6 °F /  -19.2 °C 1019.2 in /  34510.1 hPa NE 28.8 mph /  46.3 km/h 30.6 mph /  49.2 km/h 72 % 0.0 in /  0 mm
11:37 2.0 °F /  -16.7 °C -2.7 °F /  -19.3 °C 1019.2 in /  34510.1 hPa NE 14.3 mph /  23 km/h 25.7 mph /  41.4 km/h 71 % 0.0 in /  0 mm
11:43 2.2 °F /  -16.6 °C -2.5 °F /  -19.2 °C 1019.2 in /  34510.1 hPa NNE 16.3 mph /  26.2 km/h 30.6 mph /  49.2 km/h 71 % 0.0 in /  0 mm
11:49 2.4 °F /  -16.4 °C -2.1 °F /  -18.9 °C 1019.2 in /  34510.1 hPa NNW 9.7 mph /  15.6 km/h 19.3 mph /  31.1 km/h 72 % 0.0 in /  0 mm
11:55 2.5 °F /  -16.4 °C -2.2 °F /  -19 °C 1019.2 in /  34510.1 hPa NNE 19.5 mph /  31.4 km/h 29.0 mph /  46.7 km/h 71 % 0.0 in /  0 mm
12:01 2.4 °F /  -16.4 °C -2.5 °F /  -19.2 °C 1019.2 in /  34510.1 hPa NNE 17.7 mph /  28.5 km/h 22.5 mph /  36.2 km/h 70 % 0.0 in /  0 mm
12:07 2.5 °F /  -16.4 °C -2.6 °F /  -19.2 °C 1019.2 in /  34510.1 hPa NNE 11.1 mph /  17.9 km/h 27.4 mph /  44.1 km/h 69 % 0.0 in /  0 mm
12:13 2.6 °F /  -16.3 °C -2.1 °F /  -18.9 °C 1019.2 in /  34510.1 hPa NE 16.3 mph /  26.2 km/h 20.9 mph /  33.6 km/h 71 % 0.0 in /  0 mm
12:19 2.6 °F /  -16.3 °C -2.5 °F /  -19.2 °C 1019.2 in /  34510.1 hPa NE 13.0 mph /  20.9 km/h 25.7 mph /  41.4 km/h 69 % 0.0 in /  0 mm
12:25 2.6 °F /  -16.3 °C -2.9 °F /  -19.4 °C 1018.8 in /  34496.6 hPa NNW 9.7 mph /  15.6 km/h 25.7 mph /  41.4 km/h 67 % 0.0 in /  0 mm
12:31 2.7 °F /  -16.3 °C -2.6 °F /  -19.2 °C 1018.8 in /  34496.6 hPa NNE 20.9 mph /  33.6 km/h 29.0 mph /  46.7 km/h 68 % 0.0 in /  0 mm
12:37 2.8 °F /  -16.2 °C -2.3 °F /  -19.1 °C 1018.8 in /  34496.6 hPa East 9.7 mph /  15.6 km/h 24.1 mph /  38.8 km/h 69 % 0.0 in /  0 mm
12:43 3.1 °F /  -16.1 °C -2.0 °F /  -18.9 °C 1018.8 in /  34496.6 hPa North 11.1 mph /  17.9 km/h 16.1 mph /  25.9 km/h 69 % 0.0 in /  0 mm
12:49 3.2 °F /  -16 °C -1.9 °F /  -18.8 °C 1018.8 in /  34496.6 hPa North 16.3 mph /  26.2 km/h 22.5 mph /  36.2 km/h 69 % 0.0 in /  0 mm
12:55 3.2 °F /  -16 °C -2.3 °F /  -19.1 °C 1018.8 in /  34496.6 hPa ENE 11.1 mph /  17.9 km/h 27.4 mph /  44.1 km/h 67 % 0.0 in /  0 mm
13:01 3.4 °F /  -15.9 °C -2.1 °F /  -18.9 °C 1018.5 in /  34486.4 hPa ENE 11.1 mph /  17.9 km/h 27.4 mph /  44.1 km/h 67 % 0.0 in /  0 mm
13:07 3.4 °F /  -15.9 °C -1.7 °F /  -18.7 °C 1018.5 in /  34486.4 hPa NNE 7.9 mph /  12.7 km/h 22.5 mph /  36.2 km/h 69 % 0.0 in /  0 mm
13:13 3.6 °F /  -15.8 °C -2.0 °F /  -18.9 °C 1018.5 in /  34486.4 hPa NW 19.5 mph /  31.4 km/h 25.7 mph /  41.4 km/h 67 % 0.0 in /  0 mm
13:19 3.7 °F /  -15.7 °C -1.9 °F /  -18.8 °C 1018.5 in /  34486.4 hPa NE 17.7 mph /  28.5 km/h 20.9 mph /  33.6 km/h 67 % 0.0 in /  0 mm
13:25 3.8 °F /  -15.7 °C -1.8 °F /  -18.8 °C 1018.5 in /  34486.4 hPa NE 16.3 mph /  26.2 km/h 20.9 mph /  33.6 km/h 67 % 0.0 in /  0 mm
13:31 3.9 °F /  -15.6 °C -1.5 °F /  -18.6 °C 1018.2 in /  34476.3 hPa North 14.3 mph /  23 km/h 24.1 mph /  38.8 km/h 68 % 0.0 in /  0 mm
13:37 4.1 °F /  -15.5 °C -1.5 °F /  -18.6 °C 1018.2 in /  34476.3 hPa NNW 19.5 mph /  31.4 km/h 24.1 mph /  38.8 km/h 67 % 0.0 in /  0 mm
13:43 4.1 °F /  -15.5 °C -2.1 °F /  -18.9 °C 1018.2 in /  34476.3 hPa NNE 17.7 mph /  28.5 km/h 30.6 mph /  49.2 km/h 64 % 0.0 in /  0 mm
13:49 4.0 °F /  -15.6 °C -2.0 °F /  -18.9 °C 1018.2 in /  34476.3 hPa North 20.9 mph /  33.6 km/h 30.6 mph /  49.2 km/h 65 % 0.0 in /  0 mm
13:55 4.2 °F /  -15.4 °C -1.6 °F /  -18.7 °C 1018.2 in /  34476.3 hPa North 16.3 mph /  26.2 km/h 24.1 mph /  38.8 km/h 66 % 0.0 in /  0 mm
14:01 4.2 °F /  -15.4 °C -1.2 °F /  -18.4 °C 1018.2 in /  34476.3 hPa NNW 17.7 mph /  28.5 km/h 22.5 mph /  36.2 km/h 68 % 0.0 in /  0 mm
14:07 4.2 °F /  -15.4 °C -1.6 °F /  -18.7 °C 1017.8 in /  34462.7 hPa NNW 17.7 mph /  28.5 km/h 20.9 mph /  33.6 km/h 66 % 0.0 in /  0 mm
14:13 4.4 °F /  -15.3 °C -1.4 °F /  -18.6 °C 1017.8 in /  34462.7 hPa North 11.1 mph /  17.9 km/h 22.5 mph /  36.2 km/h 66 % 0.0 in /  0 mm
14:19 4.4 °F /  -15.3 °C -1.6 °F /  -18.7 °C 1017.8 in /  34462.7 hPa NNE 17.7 mph /  28.5 km/h 25.7 mph /  41.4 km/h 65 % 0.0 in /  0 mm
14:25 4.5 °F /  -15.3 °C -1.3 °F /  -18.5 °C 1017.8 in /  34462.7 hPa North 9.7 mph /  15.6 km/h 24.1 mph /  38.8 km/h 66 % 0.0 in /  0 mm
14:31 4.6 °F /  -15.2 °C -1.2 °F /  -18.4 °C 1017.8 in /  34462.7 hPa NNE 16.3 mph /  26.2 km/h 22.5 mph /  36.2 km/h 66 % 0.0 in /  0 mm
14:37 4.7 °F /  -15.2 °C -1.3 °F /  -18.5 °C 1017.8 in /  34462.7 hPa North 27.4 mph /  44.1 km/h 27.4 mph /  44.1 km/h 65 % 0.0 in /  0 mm
14:43 4.6 °F /  -15.2 °C -1.2 °F /  -18.4 °C 1017.8 in /  34462.7 hPa NE 19.5 mph /  31.4 km/h 22.5 mph /  36.2 km/h 66 % 0.0 in /  0 mm
14:49 4.5 °F /  -15.3 °C -1.5 °F /  -18.6 °C 1017.5 in /  34452.6 hPa NNE 14.3 mph /  23 km/h 30.6 mph /  49.2 km/h 65 % 0.0 in /  0 mm
14:55 4.6 °F /  -15.2 °C -1.4 °F /  -18.6 °C 1017.5 in /  34452.6 hPa NE 19.5 mph /  31.4 km/h 27.4 mph /  44.1 km/h 65 % 0.0 in /  0 mm
15:01 4.6 °F /  -15.2 °C -1.4 °F /  -18.6 °C 1017.5 in /  34452.6 hPa NNE 25.9 mph /  41.7 km/h 32.2 mph /  51.8 km/h 65 % 0.0 in /  0 mm
15:07 4.6 °F /  -15.2 °C -1.6 °F /  -18.7 °C 1017.5 in /  34452.6 hPa NNW 20.9 mph /  33.6 km/h 25.7 mph /  41.4 km/h 64 % 0.0 in /  0 mm
15:13 4.6 °F /  -15.2 °C -2.1 °F /  -18.9 °C 1017.2 in /  34442.4 hPa North 9.7 mph /  15.6 km/h 33.8 mph /  54.4 km/h 62 % 0.0 in /  0 mm
15:19 4.7 °F /  -15.2 °C -1.1 °F /  -18.4 °C 1017.2 in /  34442.4 hPa NNE 30.6 mph /  49.2 km/h 30.6 mph /  49.2 km/h 66 % 0.0 in /  0 mm
15:25 4.7 °F /  -15.2 °C -1.5 °F /  -18.6 °C 1017.2 in /  34442.4 hPa NE 9.7 mph /  15.6 km/h 30.6 mph /  49.2 km/h 64 % 0.0 in /  0 mm
15:31 4.8 °F /  -15.1 °C -1.2 °F /  -18.4 °C 1017.2 in /  34442.4 hPa NE 13.0 mph /  20.9 km/h 29.0 mph /  46.7 km/h 65 % 0.0 in /  0 mm
15:37 4.8 °F /  -15.1 °C -1.2 °F /  -18.4 °C 1017.2 in /  34442.4 hPa NNE 16.3 mph /  26.2 km/h 24.1 mph /  38.8 km/h 65 % 0.0 in /  0 mm
15:43 4.8 °F /  -15.1 °C -1.2 °F /  -18.4 °C 1017.2 in /  34442.4 hPa NE 22.7 mph /  36.5 km/h 37.0 mph /  59.5 km/h 65 % 0.0 in /  0 mm
15:49 4.9 °F /  -15.1 °C -0.9 °F /  -18.3 °C 1017.2 in /  34442.4 hPa North 20.9 mph /  33.6 km/h 20.9 mph /  33.6 km/h 66 % 0.0 in /  0 mm
15:55 4.9 °F /  -15.1 °C -1.3 °F /  -18.5 °C 1017.2 in /  34442.4 hPa North 17.7 mph /  28.5 km/h 29.0 mph /  46.7 km/h 64 % 0.0 in /  0 mm
16:01 4.8 °F /  -15.1 °C -1.0 °F /  -18.3 °C 1016.8 in /  34428.8 hPa NNE 11.1 mph /  17.9 km/h 24.1 mph /  38.8 km/h 66 % 0.0 in /  0 mm
16:07 4.8 °F /  -15.1 °C -0.8 °F /  -18.2 °C 1016.8 in /  34428.8 hPa NE 16.3 mph /  26.2 km/h 27.4 mph /  44.1 km/h 67 % 0.0 in /  0 mm
16:13 4.7 °F /  -15.2 °C -0.7 °F /  -18.2 °C 1016.8 in /  34428.8 hPa NNE 14.3 mph /  23 km/h 22.5 mph /  36.2 km/h 68 % 0.0 in /  0 mm
16:19 4.7 °F /  -15.2 °C -0.7 °F /  -18.2 °C 1017.2 in /  34442.4 hPa NE 14.3 mph /  23 km/h 29.0 mph /  46.7 km/h 68 % 0.0 in /  0 mm
16:25 4.7 °F /  -15.2 °C -0.5 °F /  -18.1 °C 1017.2 in /  34442.4 hPa NNE 17.7 mph /  28.5 km/h 24.1 mph /  38.8 km/h 69 % 0.0 in /  0 mm
16:31 4.6 °F /  -15.2 °C -0.8 °F /  -18.2 °C 1017.2 in /  34442.4 hPa North 25.9 mph /  41.7 km/h 37.0 mph /  59.5 km/h 68 % 0.0 in /  0 mm
16:37 4.6 °F /  -15.2 °C -0.8 °F /  -18.2 °C 1017.2 in /  34442.4 hPa NNE 6.4 mph /  10.3 km/h 24.1 mph /  38.8 km/h 68 % 0.0 in /  0 mm
16:43 4.6 °F /  -15.2 °C -0.6 °F /  -18.1 °C 1017.2 in /  34442.4 hPa NNW 11.1 mph /  17.9 km/h 33.8 mph /  54.4 km/h 69 % 0.0 in /  0 mm
16:49 4.5 °F /  -15.3 °C -0.5 °F /  -18.1 °C 1017.2 in /  34442.4 hPa NNW 13.0 mph /  20.9 km/h 24.1 mph /  38.8 km/h 70 % 0.0 in /  0 mm
16:55 4.3 °F /  -15.4 °C -0.5 °F /  -18.1 °C 1017.2 in /  34442.4 hPa NNW 16.3 mph /  26.2 km/h 22.5 mph /  36.2 km/h 71 % 0.0 in /  0 mm
17:01 4.2 °F /  -15.4 °C -0.6 °F /  -18.1 °C 1017.2 in /  34442.4 hPa North 4.7 mph /  7.6 km/h 22.5 mph /  36.2 km/h 71 % 0.0 in /  0 mm
17:07 4.1 °F /  -15.5 °C -0.5 °F /  -18.1 °C 1017.2 in /  34442.4 hPa North 4.7 mph /  7.6 km/h 20.9 mph /  33.6 km/h 72 % 0.0 in /  0 mm
17:13 3.9 °F /  -15.6 °C -0.7 °F /  -18.2 °C 1017.5 in /  34452.6 hPa North 11.1 mph /  17.9 km/h 20.9 mph /  33.6 km/h 72 % 0.0 in /  0 mm
17:19 3.8 °F /  -15.7 °C -0.6 °F /  -18.1 °C 1017.5 in /  34452.6 hPa NNE 20.9 mph /  33.6 km/h 27.4 mph /  44.1 km/h 73 % 0.0 in /  0 mm
17:25 3.7 °F /  -15.7 °C -0.7 °F /  -18.2 °C 1017.5 in /  34452.6 hPa NNE 22.7 mph /  36.5 km/h 22.7 mph /  36.5 km/h 73 % 0.0 in /  0 mm
17:32 3.7 °F /  -15.7 °C -0.5 °F /  -18.1 °C 1017.5 in /  34452.6 hPa NNE 11.1 mph /  17.9 km/h 17.7 mph /  28.5 km/h 74 % 0.0 in /  0 mm
17:38 3.6 °F /  -15.8 °C -0.8 °F /  -18.2 °C 1017.5 in /  34452.6 hPa NE 13.0 mph /  20.9 km/h 17.7 mph /  28.5 km/h 73 % 0.0 in /  0 mm
17:44 3.4 °F /  -15.9 °C -1.0 °F /  -18.3 °C 1017.5 in /  34452.6 hPa NNW 9.7 mph /  15.6 km/h 22.5 mph /  36.2 km/h 73 % 0.0 in /  0 mm
17:50 3.3 °F /  -15.9 °C -0.9 °F /  -18.3 °C 1017.5 in /  34452.6 hPa NNE 13.0 mph /  20.9 km/h 16.1 mph /  25.9 km/h 74 % 0.0 in /  0 mm
17:56 3.2 °F /  -16 °C -0.8 °F /  -18.2 °C 1017.5 in /  34452.6 hPa NNW 13.0 mph /  20.9 km/h 13.0 mph /  20.9 km/h 75 % 0.0 in /  0 mm
18:02 3.0 °F /  -16.1 °C -1.0 °F /  -18.3 °C 1017.8 in /  34462.7 hPa NNW 11.1 mph /  17.9 km/h 16.1 mph /  25.9 km/h 75 % 0.0 in /  0 mm
18:08 2.8 °F /  -16.2 °C -1.0 °F /  -18.3 °C 1017.8 in /  34462.7 hPa North 9.7 mph /  15.6 km/h 16.1 mph /  25.9 km/h 76 % 0.0 in /  0 mm
18:14 2.7 °F /  -16.3 °C -1.1 °F /  -18.4 °C 1017.8 in /  34462.7 hPa NE 1.4 mph /  2.3 km/h 11.3 mph /  18.2 km/h 76 % 0.0 in /  0 mm
18:20 2.6 °F /  -16.3 °C -1.0 °F /  -18.3 °C 1017.8 in /  34462.7 hPa NNW 7.9 mph /  12.7 km/h 16.1 mph /  25.9 km/h 77 % 0.0 in /  0 mm
18:26 2.5 °F /  -16.4 °C -1.1 °F /  -18.4 °C 1017.8 in /  34462.7 hPa North 3.2 mph /  5.1 km/h 12.9 mph /  20.8 km/h 77 % 0.0 in /  0 mm
18:32 2.4 °F /  -16.4 °C -1.0 °F /  -18.3 °C 1017.8 in /  34462.7 hPa NNE 6.4 mph /  10.3 km/h 11.3 mph /  18.2 km/h 78 % 0.0 in /  0 mm
18:38 2.3 °F /  -16.5 °C -1.1 °F /  -18.4 °C 1017.8 in /  34462.7 hPa NNE 3.2 mph /  5.1 km/h 9.7 mph /  15.6 km/h 78 % 0.0 in /  0 mm
18:44 2.2 °F /  -16.6 °C -1.2 °F /  -18.4 °C 1017.8 in /  34462.7 hPa NNW 7.9 mph /  12.7 km/h 11.3 mph /  18.2 km/h 78 % 0.0 in /  0 mm
18:50 2.1 °F /  -16.6 °C -1.2 °F /  -18.4 °C 1017.8 in /  34462.7 hPa North 4.7 mph /  7.6 km/h 17.7 mph /  28.5 km/h 79 % 0.0 in /  0 mm
18:56 2.1 °F /  -16.6 °C -1.2 °F /  -18.4 °C 1017.8 in /  34462.7 hPa WNW 3.2 mph /  5.1 km/h 17.7 mph /  28.5 km/h 79 % 0.0 in /  0 mm
19:02 2.0 °F /  -16.7 °C -1.3 °F /  -18.5 °C 1017.8 in /  34462.7 hPa NNW 7.9 mph /  12.7 km/h 17.7 mph /  28.5 km/h 79 % 0.0 in /  0 mm
19:08 1.9 °F /  -16.7 °C -1.4 °F /  -18.6 °C 1017.8 in /  34462.7 hPa NW 4.7 mph /  7.6 km/h 9.7 mph /  15.6 km/h 79 % 0.0 in /  0 mm
19:14 1.9 °F /  -16.7 °C -1.2 °F /  -18.4 °C 1017.8 in /  34462.7 hPa NE 3.2 mph /  5.1 km/h 12.9 mph /  20.8 km/h 80 % 0.0 in /  0 mm
19:20 1.8 °F /  -16.8 °C -1.3 °F /  -18.5 °C 1017.8 in /  34462.7 hPa NNW 4.7 mph /  7.6 km/h 16.1 mph /  25.9 km/h 80 % 0.0 in /  0 mm
19:26 1.8 °F /  -16.8 °C -1.3 °F /  -18.5 °C 1017.8 in /  34462.7 hPa NNE 11.1 mph /  17.9 km/h 16.1 mph /  25.9 km/h 80 % 0.0 in /  0 mm
19:32 1.7 °F /  -16.8 °C -1.2 °F /  -18.4 °C 1017.8 in /  34462.7 hPa NE 3.2 mph /  5.1 km/h 12.9 mph /  20.8 km/h 81 % 0.0 in /  0 mm
19:38 1.6 °F /  -16.9 °C -1.3 °F /  -18.5 °C 1017.8 in /  34462.7 hPa NE 14.3 mph /  23 km/h 14.5 mph /  23.3 km/h 81 % 0.0 in /  0 mm
19:44 1.5 °F /  -16.9 °C -1.2 °F /  -18.4 °C 1017.8 in /  34462.7 hPa NNW 9.7 mph /  15.6 km/h 16.1 mph /  25.9 km/h 82 % 0.0 in /  0 mm
19:50 1.5 °F /  -16.9 °C -1.2 °F /  -18.4 °C 1017.8 in /  34462.7 hPa NE 4.7 mph /  7.6 km/h 11.3 mph /  18.2 km/h 82 % 0.0 in /  0 mm
19:56 1.5 °F /  -16.9 °C -1.2 °F /  -18.4 °C 1017.8 in /  34462.7 hPa North 9.7 mph /  15.6 km/h 12.9 mph /  20.8 km/h 82 % 0.0 in /  0 mm
20:02 1.6 °F /  -16.9 °C -1.1 °F /  -18.4 °C 1017.8 in /  34462.7 hPa North 4.7 mph /  7.6 km/h 12.9 mph /  20.8 km/h 82 % 0.0 in /  0 mm
20:08 1.5 °F /  -16.9 °C -1.1 °F /  -18.4 °C 1017.8 in /  34462.7 hPa ENE 7.9 mph /  12.7 km/h 16.1 mph /  25.9 km/h 83 % 0.0 in /  0 mm
20:14 1.5 °F /  -16.9 °C -1.1 °F /  -18.4 °C 1017.8 in /  34462.7 hPa North 4.7 mph /  7.6 km/h 17.7 mph /  28.5 km/h 83 % 0.0 in /  0 mm
20:20 1.5 °F /  -16.9 °C -1.1 °F /  -18.4 °C 1017.8 in /  34462.7 hPa NNE 13.0 mph /  20.9 km/h 17.7 mph /  28.5 km/h 83 % 0.0 in /  0 mm
20:26 1.5 °F /  -16.9 °C -1.1 °F /  -18.4 °C 1017.8 in /  34462.7 hPa North 17.7 mph /  28.5 km/h 19.3 mph /  31.1 km/h 83 % 0.0 in /  0 mm
20:32 1.5 °F /  -16.9 °C -1.2 °F /  -18.4 °C 1017.8 in /  34462.7 hPa NNE 11.1 mph /  17.9 km/h 22.5 mph /  36.2 km/h 82 % 0.0 in /  0 mm
20:38 1.5 °F /  -16.9 °C -1.2 °F /  -18.4 °C 1017.8 in /  34462.7 hPa North 7.9 mph /  12.7 km/h 19.3 mph /  31.1 km/h 82 % 0.0 in /  0 mm
20:44 1.4 °F /  -17 °C -1.3 °F /  -18.5 °C 1017.8 in /  34462.7 hPa NE 14.3 mph /  23 km/h 20.9 mph /  33.6 km/h 82 % 0.0 in /  0 mm
20:50 1.4 °F /  -17 °C -1.3 °F /  -18.5 °C 1017.8 in /  34462.7 hPa NNW 9.7 mph /  15.6 km/h 27.4 mph /  44.1 km/h 82 % 0.0 in /  0 mm
20:56 1.4 °F /  -17 °C -1.3 °F /  -18.5 °C 1017.8 in /  34462.7 hPa NE 6.4 mph /  10.3 km/h 17.7 mph /  28.5 km/h 82 % 0.0 in /  0 mm
21:02 1.4 °F /  -17 °C -1.3 °F /  -18.5 °C 1017.8 in /  34462.7 hPa North 9.7 mph /  15.6 km/h 16.1 mph /  25.9 km/h 82 % 0.0 in /  0 mm
21:08 1.3 °F /  -17.1 °C -1.4 °F /  -18.6 °C 1017.8 in /  34462.7 hPa NNW 11.1 mph /  17.9 km/h 20.9 mph /  33.6 km/h 82 % 0.0 in /  0 mm
21:14 1.3 °F /  -17.1 °C -1.4 °F /  -18.6 °C 1017.8 in /  34462.7 hPa NE 11.1 mph /  17.9 km/h 25.7 mph /  41.4 km/h 82 % 0.0 in /  0 mm
21:20 1.3 °F /  -17.1 °C -1.4 °F /  -18.6 °C 1017.8 in /  34462.7 hPa NNE 11.1 mph /  17.9 km/h 20.9 mph /  33.6 km/h 82 % 0.0 in /  0 mm
21:26 1.3 °F /  -17.1 °C -1.4 °F /  -18.6 °C 1017.8 in /  34462.7 hPa NNW 24.1 mph /  38.8 km/h 24.1 mph /  38.8 km/h 82 % 0.0 in /  0 mm
21:32 1.3 °F /  -17.1 °C -1.4 °F /  -18.6 °C 1017.8 in /  34462.7 hPa North 16.3 mph /  26.2 km/h 20.9 mph /  33.6 km/h 82 % 0.0 in /  0 mm
21:38 1.3 °F /  -17.1 °C -1.4 °F /  -18.6 °C 1017.8 in /  34462.7 hPa NNW 7.9 mph /  12.7 km/h 20.9 mph /  33.6 km/h 82 % 0.0 in /  0 mm
21:44 1.3 °F /  -17.1 °C -1.3 °F /  -18.5 °C 1017.8 in /  34462.7 hPa NNE 19.5 mph /  31.4 km/h 22.5 mph /  36.2 km/h 83 % 0.0 in /  0 mm
21:50 1.2 °F /  -17.1 °C -1.4 °F /  -18.6 °C 1017.8 in /  34462.7 hPa NE 9.7 mph /  15.6 km/h 24.1 mph /  38.8 km/h 83 % 0.0 in /  0 mm
21:58 1.2 °F /  -17.1 °C -1.2 °F /  -18.4 °C 1017.5 in /  34452.6 hPa North 6.4 mph /  10.3 km/h 22.5 mph /  36.2 km/h 84 % 0.0 in /  0 mm
22:04 1.1 °F /  -17.2 °C -1.3 °F /  -18.5 °C 1017.5 in /  34452.6 hPa West 7.9 mph /  12.7 km/h 17.7 mph /  28.5 km/h 84 % 0.0 in /  0 mm
22:10 1.1 °F /  -17.2 °C -1.3 °F /  -18.5 °C 1017.5 in /  34452.6 hPa NE 9.7 mph /  15.6 km/h 20.9 mph /  33.6 km/h 84 % 0.0 in /  0 mm
22:16 1.1 °F /  -17.2 °C -1.1 °F /  -18.4 °C 1017.5 in /  34452.6 hPa NNW 7.9 mph /  12.7 km/h 19.3 mph /  31.1 km/h 85 % 0.0 in /  0 mm
22:22 1.0 °F /  -17.2 °C -1.2 °F /  -18.4 °C 1017.5 in /  34452.6 hPa NNE 14.3 mph /  23 km/h 24.1 mph /  38.8 km/h 85 % 0.0 in /  0 mm
22:28 0.9 °F /  -17.3 °C -1.3 °F /  -18.5 °C 1017.5 in /  34452.6 hPa ENE 3.2 mph /  5.1 km/h 16.1 mph /  25.9 km/h 85 % 0.0 in /  0 mm
22:34 0.9 °F /  -17.3 °C -1.3 °F /  -18.5 °C 1017.5 in /  34452.6 hPa NNW 7.9 mph /  12.7 km/h 17.7 mph /  28.5 km/h 85 % 0.0 in /  0 mm
22:38 0.9 °F /  -17.3 °C -1.3 °F /  -18.5 °C 1017.5 in /  34452.6 hPa NE 7.9 mph /  12.7 km/h 20.9 mph /  33.6 km/h 85 % 0.0 in /  0 mm
22:42 0.8 °F /  -17.3 °C -1.4 °F /  -18.6 °C 1017.5 in /  34452.6 hPa NW 3.2 mph /  5.1 km/h 22.5 mph /  36.2 km/h 85 % 0.0 in /  0 mm
22:48 0.8 °F /  -17.3 °C -1.3 °F /  -18.5 °C 1017.5 in /  34452.6 hPa ENE 7.9 mph /  12.7 km/h 17.7 mph /  28.5 km/h 86 % 0.0 in /  0 mm
22:54 0.7 °F /  -17.4 °C -1.4 °F /  -18.6 °C 1017.2 in /  34442.4 hPa North 3.2 mph /  5.1 km/h 20.9 mph /  33.6 km/h 86 % 0.0 in /  0 mm
23:00 0.6 °F /  -17.4 °C -1.5 °F /  -18.6 °C 1017.2 in /  34442.4 hPa North 14.3 mph /  23 km/h 24.1 mph /  38.8 km/h 86 % 0.0 in /  0 mm
23:06 0.7 °F /  -17.4 °C -1.4 °F /  -18.6 °C 1017.2 in /  34442.4 hPa NNE 13.0 mph /  20.9 km/h 32.2 mph /  51.8 km/h 86 % 0.0 in /  0 mm
23:12 0.6 °F /  -17.4 °C -1.3 °F /  -18.5 °C 1016.8 in /  34428.8 hPa NNW 14.3 mph /  23 km/h 20.9 mph /  33.6 km/h 87 % 0.0 in /  0 mm
23:18 0.5 °F /  -17.5 °C -1.4 °F /  -18.6 °C 1016.8 in /  34428.8 hPa West 9.7 mph /  15.6 km/h 25.7 mph /  41.4 km/h 87 % 0.0 in /  0 mm
23:24 0.4 °F /  -17.6 °C -1.5 °F /  -18.6 °C 1016.8 in /  34428.8 hPa NNE 7.9 mph /  12.7 km/h 22.5 mph /  36.2 km/h 87 % 0.0 in /  0 mm
23:30 0.4 °F /  -17.6 °C -1.5 °F /  -18.6 °C 1016.8 in /  34428.8 hPa NE 13.0 mph /  20.9 km/h 22.5 mph /  36.2 km/h 87 % 0.0 in /  0 mm
23:36 0.3 °F /  -17.6 °C -1.6 °F /  -18.7 °C 1016.8 in /  34428.8 hPa North 11.1 mph /  17.9 km/h 19.3 mph /  31.1 km/h 87 % 0.0 in /  0 mm
23:42 0.3 °F /  -17.6 °C -1.6 °F /  -18.7 °C 1016.8 in /  34428.8 hPa NNE 14.3 mph /  23 km/h 24.1 mph /  38.8 km/h 87 % 0.0 in /  0 mm
23:48 0.3 °F /  -17.6 °C -1.6 °F /  -18.7 °C 1016.8 in /  34428.8 hPa NNE 17.7 mph /  28.5 km/h 19.3 mph /  31.1 km/h 87 % 0.0 in /  0 mm
23:54 0.3 °F /  -17.6 °C -1.5 °F /  -18.6 °C 1016.8 in /  34428.8 hPa NE 6.4 mph /  10.3 km/h 20.9 mph /  33.6 km/h 88 % 0.0 in /  0 mm
Meteo18
Compliments of Weather Underground - 4 mb

Script developed by  Jim McMurry - jmcmurry@mwt.net Adapted for the template by  Wim van der Kuil - Leuven-Template.eu

You find our weather info also at:

European Weather Network

Weather Underground

Equipment we use:

Weather-station
Davis Vue

Weather-program
Meteobridge

Weather-server
Raspberry PI 2 B+

Provider
1 and 1

Davis Vue

Meteobridge

Raspberry PI 2 B+

1 and 1